Skip Navigation Links
NOAA logo - Click to go to the NOAA homepage
NOAA's National Weather Service
Alaska Aviation Weather Unit
  NWS logo - Click to go to the NWS homepage
Left Navbar Graphic     19 AKDT = 03 GMT

   
NOAA is celebrating 200 years of science, service, and stewardship. Visit the NOAA 200th celebration Web site to learn more.
USA.gov is the U.S. Government's official Web portal to all Federal, state and local government Web resources and services.
Facebook
NWS on Facebook

Important Change Regarding the AAWU Web Presence

 

Over the last several months, the AAWU has been working to navigate its webpages to a nationally supported server. Security, as well as other needs, have necessitated the change.  In the process, we have made an effort to enhance the functionality of our website, as well as some of our products. As of June 20, 2017, aawu.arh.noaa.gov will be discontinued. The new AAWU web address is weather.gov/aawu. It is now live and will run in-parallel with the old site until it is discontinued. Please send any feedback or questions regarding the new webpages to nws.ar.aawu.webauthors@noaa.gov.  Thank you for your patience during this time of transition.
AAWU Home :: Display TAF Add Bookmark
TAF PABT 242339Z 2500/2524 15012KT P6SM VCSH BKN035 BKN050 OVC100
     FM250300 18006KT 4SM -RA BR BKN025 OVC035
     FM250600 18010KT 2SM -RA BR OVC015
     FM251600 24006KT P6SM VCSH SCT015 BKN025=
METAR PABT 242153Z 15011G19KT 10SM BKN060 BKN075 OVC095 13/M02 A2971
 RMK AO2 SLP072 SHRA VC N AND DSNT S-VC NW T01281017=

METAR PABT 242253Z 15008G19KT 10SM -RA SCT055 BKN070 OVC090 12/M01 A2970
     RMK AO2 RAB09 SLP069 P0000 T01171011=

METAR PABT 242353Z 13007KT 10SM -RA BKN055 BKN070 OVC090 11/02 A2969 RMK
     AO2 SLP065 P0000 60000 T01110022 10133 20106 56011=

METAR PABT 250053Z 11005KT 10SM -RA BKN050 BKN065 OVC090 11/03 A2968 RMK
     AO2 SLP061 P0000 T01110028=

METAR PABT 250153Z 12006KT 10SM -RA BKN040 BKN050 OVC055 11/04 A2967
 RMK AO2 SLP056 P0001 T01060044=

METAR PABT 250253Z 11008KT 10SM -RA FEW030 BKN044 OVC070 09/05 A2965 RMK
     AO2 SLP050 P0002 60003 T00940050 58015=


NOAA's National Weather Service
Alaska Aviation Weather Unit
6930 Sand Lake Road
Anchorage, AK 99502-1845
Disclaimer
Credits
Glossary
Privacy Policy
About Us
Career Opportunities
Contact AAWU Internet Services Site last modified: April, 17th 2012